createdAt,value
2022-11-02T00:01:29.534Z,73127.13
2022-11-02T00:03:57.031Z,76506.78
2022-11-02T00:06:24.489Z,73808.94
2022-11-02T00:08:51.977Z,74107.59
2022-11-02T00:11:19.418Z,74809.59
2022-11-02T00:13:47.032Z,74795.03
2022-11-02T00:16:18.433Z,71443.31
2022-11-02T00:18:48.834Z,70795.06
2022-11-02T00:21:18.185Z,71791.56
2022-11-02T00:23:47.370Z,70438.03
2022-11-02T00:26:15.600Z,71111.41
2022-11-02T00:28:43.078Z,70051.53
2022-11-02T00:31:10.628Z,71741.16
2022-11-02T00:33:39.453Z,74749.47
2022-11-02T00:36:07.320Z,74089.34
2022-11-02T00:38:34.777Z,74751.38
2022-11-02T00:41:02.221Z,74408.41
2022-11-02T00:43:29.652Z,73752.06
2022-11-02T00:45:57.180Z,75087.41
2022-11-02T00:48:24.613Z,75421.53
2022-11-02T00:50:55.281Z,74064.28
2022-11-02T00:53:22.757Z,76758.75
2022-11-02T00:55:50.405Z,77081.81
2022-11-02T00:58:17.854Z,74720.38
2022-11-02T01:00:45.316Z,76063.44
2022-11-02T01:03:12.896Z,76763.28
2022-11-02T01:05:40.336Z,77430.94
2022-11-02T01:08:09.540Z,77761.16
2022-11-02T01:10:36.986Z,78095.97
2022-11-02T01:13:04.490Z,79765.31
2022-11-02T01:15:31.984Z,79762.59
2022-11-02T01:17:59.434Z,78408.88
2022-11-02T01:20:26.885Z,78415.53
2022-11-02T01:22:54.320Z,79078.31
2022-11-02T01:25:23.093Z,79421.78
2022-11-02T01:27:50.538Z,77393.63
2022-11-02T01:30:17.992Z,77061.59
2022-11-02T01:32:45.444Z,77402.78
2022-11-02T01:35:13.865Z,76728.22
2022-11-02T01:37:41.457Z,77739.47
2022-11-02T01:40:10.062Z,76052.47
2022-11-02T01:42:38.866Z,77413.28
2022-11-02T01:45:08.375Z,76728.22
2022-11-02T01:47:39.355Z,77406.72
2022-11-02T01:50:11.033Z,74363.06
2022-11-02T01:52:40.174Z,73040.50
2022-11-02T01:55:13.499Z,73035.56
2022-11-02T01:57:45.561Z,74048.63
2022-11-02T02:00:15.788Z,73049.16
2022-11-02T02:02:48.505Z,71710.75
2022-11-02T02:05:18.119Z,71706.50
2022-11-02T02:07:46.943Z,72375.03
2022-11-02T02:10:14.469Z,71352.00
2022-11-02T02:12:44.339Z,70342.66
2022-11-02T02:15:13.497Z,68997.38
2022-11-02T02:17:48.710Z,70318.22
2022-11-02T02:20:28.858Z,73349.59
2022-11-02T02:23:37.542Z,73674.72
2022-11-02T02:26:39.023Z,74004.75
2022-11-02T02:29:14.386Z,72672.69
2022-11-02T02:31:50.007Z,69991.63
2022-11-02T02:34:20.804Z,72008.16
2022-11-02T02:36:51.876Z,72005.69
2022-11-02T02:39:27.570Z,72338.28
2022-11-02T02:42:01.718Z,72994.13
2022-11-02T02:44:35.465Z,72997.84
2022-11-02T02:47:09.742Z,73657.25
2022-11-02T02:49:39.766Z,73332.84
2022-11-02T02:52:08.271Z,73327.25
2022-11-02T02:54:42.394Z,73312.34
2022-11-02T02:57:13.095Z,71970.34
2022-11-02T02:59:43.021Z,72669.63
2022-11-02T03:02:22.154Z,71633.69
2022-11-02T03:04:50.036Z,73660.97
2022-11-02T03:07:24.022Z,70622.03
2022-11-02T03:09:58.300Z,70305.13
2022-11-02T03:12:33.293Z,71965.47
2022-11-02T03:15:10.539Z,70287.25
2022-11-02T03:17:47.142Z,71972.78
2022-11-02T03:20:23.042Z,72305.19
2022-11-02T03:22:56.555Z,71636.69
2022-11-02T03:25:29.205Z,72992.88
2022-11-02T03:28:04.481Z,72653.63
2022-11-02T03:30:41.824Z,71983.75
2022-11-02T03:33:17.731Z,70983.84
2022-11-02T03:35:52.429Z,70641.78
2022-11-02T03:38:23.952Z,70308.69
2022-11-02T03:40:55.745Z,70652.53
2022-11-02T03:43:25.090Z,73005.88
2022-11-02T03:45:57.082Z,71321.19
2022-11-02T03:48:27.939Z,72649.94
2022-11-02T03:53:55.737Z,73315.47
2022-11-02T03:56:28.089Z,71645.81
2022-11-02T03:58:55.551Z,73313.59
2022-11-02T04:01:26.509Z,72643.78
2022-11-02T04:03:54.040Z,73977.81
2022-11-02T04:06:21.800Z,73975.94
2022-11-02T04:08:50.476Z,73643.53
2022-11-02T04:11:35.615Z,72632.72
2022-11-02T04:14:35.363Z,71631.25
2022-11-02T04:17:21.853Z,71967.91
2022-11-02T04:19:50.081Z,72300.31
2022-11-02T04:22:35.579Z,71630.63
2022-11-02T04:25:21.386Z,72648.69
2022-11-02T04:27:51.192Z,71976.44
2022-11-02T04:30:21.248Z,70626.81
2022-11-02T04:33:09.428Z,71971.56
2022-11-02T04:35:37.715Z,72655.47
2022-11-02T04:38:22.693Z,72640.09
2022-11-02T04:41:10.669Z,71313.94
2022-11-02T04:43:38.157Z,74995.94
2022-11-02T04:46:07.480Z,76654.88
2022-11-02T04:48:36.256Z,76984.00
2022-11-02T04:51:04.034Z,75630.09
2022-11-02T04:53:31.493Z,75302.88
2022-11-02T04:55:59.233Z,74957.84
2022-11-02T04:58:26.675Z,75299.72
2022-11-02T05:00:54.409Z,76644.47
2022-11-02T05:03:21.956Z,76961.22
2022-11-02T05:05:55.205Z,78324.00
2022-11-02T05:08:22.658Z,79660.09
2022-11-02T05:10:54.487Z,76641.25
2022-11-02T05:13:22.257Z,75295.88
2022-11-02T05:15:49.833Z,74968.00
2022-11-02T05:18:19.075Z,76307.59
2022-11-02T05:20:52.937Z,78317.38
2022-11-02T05:23:21.082Z,79653.34
2022-11-02T05:25:55.227Z,78633.72
2022-11-02T05:28:23.022Z,78632.38
2022-11-02T05:30:50.922Z,82009.13
2022-11-02T05:33:19.097Z,80322.72
2022-11-02T05:35:46.930Z,77651.34
2022-11-02T05:38:15.961Z,79311.63
2022-11-02T05:40:43.433Z,78983.34
2022-11-02T05:43:11.715Z,79660.09
2022-11-02T05:45:39.153Z,79318.34
2022-11-02T05:48:09.908Z,82023.69
2022-11-02T05:50:37.361Z,81685.75
2022-11-02T05:53:04.913Z,82016.75
2022-11-02T05:55:35.338Z,81346.44
2022-11-02T05:58:02.927Z,81685.75
2022-11-02T06:00:30.427Z,81351.28
2022-11-02T06:03:01.682Z,81015.41
2022-11-02T06:05:29.570Z,81012.69
2022-11-02T06:08:00.108Z,83042.66
2022-11-02T06:10:27.885Z,82024.38
2022-11-02T06:12:57.758Z,82681.50
2022-11-02T06:15:25.323Z,83365.22
2022-11-02T06:17:52.826Z,82343.56
2022-11-02T06:20:20.543Z,82347.72
2022-11-02T06:22:48.389Z,82353.31
2022-11-02T06:25:16.878Z,81696.78
2022-11-02T06:27:52.978Z,82036.19
2022-11-02T06:30:21.874Z,80700.78
2022-11-02T06:32:49.745Z,81374.66
2022-11-02T06:35:17.926Z,81404.97
2022-11-02T06:37:45.730Z,79737.66
2022-11-02T06:40:14.754Z,80424.72
2022-11-02T06:42:45.384Z,81100.47
2022-11-02T06:45:26.158Z,80462.16
2022-11-02T06:47:53.634Z,80136.03
2022-11-02T06:50:21.363Z,80156.38
2022-11-02T06:52:48.844Z,81847.59
2022-11-02T06:55:17.077Z,81872.50
2022-11-02T06:57:45.580Z,83573.47
2022-11-02T07:00:20.816Z,82915.41
2022-11-02T07:03:01.365Z,83946.47
2022-11-02T07:05:29.187Z,86331.66
2022-11-02T07:07:57.148Z,88365.31
2022-11-02T07:10:25.374Z,94486.19
2022-11-02T07:12:53.991Z,91435.53
2022-11-02T07:15:21.492Z,94487.81
2022-11-02T07:17:49.212Z,95490.66
2022-11-02T07:20:19.166Z,95826.03
2022-11-02T07:22:53.613Z,94463.06
2022-11-02T07:25:25.435Z,93807.56
2022-11-02T07:27:52.860Z,95170.59
2022-11-02T07:30:20.928Z,95171.38
2022-11-02T07:32:48.442Z,92828.22
2022-11-02T07:35:18.544Z,93867.78
2022-11-02T07:37:46.312Z,95588.22
2022-11-02T07:40:15.046Z,94940.88
2022-11-02T07:42:46.543Z,95647.13
2022-11-02T07:45:14.645Z,97369.31
2022-11-02T07:47:45.927Z,103202.00
2022-11-02T07:50:14.061Z,103215.91
2022-11-02T07:52:47.495Z,109064.44
2022-11-02T07:55:15.840Z,110769.19
2022-11-02T07:57:43.659Z,112861.09
2022-11-02T08:00:12.605Z,116303.75
2022-11-02T08:02:40.303Z,118406.41
2022-11-02T08:05:08.459Z,120846.53
2022-11-02T08:07:35.950Z,126737.56
2022-11-02T08:10:05.373Z,131948.31
2022-11-02T08:12:32.851Z,143708.75
2022-11-02T08:15:04.737Z,145477.47
2022-11-02T08:17:36.152Z,152440.63
2022-11-02T08:20:03.786Z,152862.97
2022-11-02T08:22:31.358Z,152909.47
2022-11-02T08:24:58.922Z,152949.41
2022-11-02T08:27:27.729Z,152966.19
2022-11-02T08:29:55.204Z,152963.59
2022-11-02T08:32:22.641Z,153007.44
2022-11-02T08:34:50.171Z,153073.19
2022-11-02T08:37:17.633Z,153113.19
2022-11-02T08:39:45.099Z,153154.44
2022-11-02T08:42:12.620Z,153195.75
2022-11-02T08:44:42.665Z,153265.41
2022-11-02T08:47:10.418Z,153306.72
2022-11-02T08:49:37.877Z,153360.91
2022-11-02T08:52:05.548Z,153407.41
2022-11-02T08:54:33.030Z,153429.34
2022-11-02T08:57:00.501Z,153477.13
2022-11-02T08:59:27.921Z,153524.88
2022-11-02T09:01:56.845Z,153576.59
2022-11-02T09:04:24.724Z,153632.13
2022-11-02T09:06:52.220Z,153650.25
2022-11-02T09:09:20.044Z,153668.34
2022-11-02T09:11:50.730Z,153712.22
2022-11-02T09:14:18.298Z,153727.75
2022-11-02T09:16:45.862Z,153771.69
2022-11-02T09:19:14.662Z,153794.94
2022-11-02T09:21:42.465Z,153814.34
2022-11-02T09:24:10.702Z,153846.63
2022-11-02T09:26:38.182Z,153864.78
2022-11-02T09:29:05.876Z,153880.31
2022-11-02T09:31:33.331Z,153841.47
2022-11-02T09:34:00.804Z,153888.03
2022-11-02T09:36:29.622Z,153924.28
2022-11-02T09:38:57.102Z,153952.66
2022-11-02T09:41:31.732Z,153902.25
2022-11-02T09:44:06.000Z,153876.41
2022-11-02T09:46:34.955Z,153900.97
2022-11-02T09:49:06.770Z,153853.13
2022-11-02T09:51:39.667Z,153841.47
2022-11-02T09:54:14.789Z,153840.19
2022-11-02T09:56:45.926Z,153862.16
2022-11-02T09:59:16.346Z,153836.28
2022-11-02T10:01:55.554Z,153769.09
2022-11-02T10:04:53.107Z,153763.91
2022-11-02T10:07:33.762Z,153801.41
2022-11-02T10:10:06.406Z,153797.53
2022-11-02T10:12:44.110Z,153776.81
2022-11-02T10:15:16.654Z,153775.56
2022-11-02T10:17:45.801Z,153782.00
2022-11-02T10:20:20.908Z,153749.69
2022-11-02T10:22:49.773Z,153694.19
2022-11-02T10:25:18.158Z,153688.97
2022-11-02T10:27:51.163Z,153668.34
2022-11-02T10:30:22.404Z,153699.31
2022-11-02T10:32:53.589Z,153763.91
2022-11-02T10:35:37.047Z,153857.00
2022-11-02T10:38:28.043Z,154035.44
2022-11-02T10:41:24.298Z,154204.97
2022-11-02T10:44:18.518Z,154265.75
2022-11-02T10:46:58.800Z,154133.75
2022-11-02T10:49:47.913Z,154186.84
2022-11-02T10:52:18.021Z,154208.88
2022-11-02T10:54:50.442Z,154254.13
2022-11-02T10:57:23.203Z,154158.38
2022-11-02T11:00:27.697Z,154045.81
2022-11-02T11:03:10.243Z,154082.03
2022-11-02T11:05:44.591Z,154063.91
2022-11-02T11:08:29.917Z,154087.22
2022-11-02T11:11:11.442Z,154053.56
2022-11-02T11:16:35.157Z,154106.59
2022-11-02T11:21:51.640Z,154131.16
2022-11-02T11:24:28.107Z,154100.16
2022-11-02T11:27:15.231Z,154094.94
2022-11-02T11:29:49.627Z,154110.47
2022-11-02T11:32:20.036Z,154097.53
2022-11-02T11:34:57.231Z,154102.69
2022-11-02T11:37:25.988Z,154118.22
2022-11-02T11:39:58.581Z,154170.00
2022-11-02T11:42:30.468Z,154105.28
2022-11-02T11:45:02.432Z,154127.31
2022-11-02T11:47:33.434Z,154133.75
2022-11-02T11:50:08.625Z,154113.06
2022-11-02T11:52:45.057Z,154070.38
2022-11-02T11:55:24.946Z,154089.75
2022-11-02T11:58:08.417Z,154093.66
2022-11-02T12:00:40.070Z,154050.97
2022-11-02T12:03:10.930Z,154074.22
2022-11-02T12:05:56.525Z,154050.97
2022-11-02T12:08:46.394Z,154031.59
2022-11-02T12:11:29.569Z,154083.31
2022-11-02T12:14:11.558Z,154094.94
2022-11-02T12:16:56.926Z,154102.69
2022-11-02T12:19:37.225Z,154119.53
2022-11-02T12:22:17.272Z,154057.44
2022-11-02T12:25:09.172Z,153977.28
2022-11-02T12:27:45.314Z,153953.97
2022-11-02T12:30:17.947Z,153965.66
2022-11-02T12:33:06.078Z,153946.25
2022-11-02T12:35:43.098Z,153912.59
2022-11-02T12:38:22.202Z,153924.28
2022-11-02T12:40:59.833Z,153926.81
2022-11-02T12:43:41.026Z,153877.72
2022-11-02T12:46:26.391Z,153886.75
2022-11-02T12:49:17.479Z,153921.69
2022-11-02T12:51:51.496Z,153972.09
2022-11-02T12:54:22.418Z,154009.59
2022-11-02T12:56:51.792Z,153992.81
2022-11-02T12:59:23.913Z,153913.88
2022-11-02T13:01:57.721Z,153875.13
2022-11-02T13:04:31.058Z,153884.19
2022-11-02T13:07:06.768Z,153863.50
2022-11-02T13:09:38.119Z,153800.13
2022-11-02T13:12:09.425Z,153784.59
2022-11-02T13:14:41.600Z,153813.03
2022-11-02T13:17:16.846Z,153828.56
2022-11-02T13:19:49.070Z,153854.41
2022-11-02T13:22:19.476Z,153857.00
2022-11-02T13:24:52.016Z,153859.56
2022-11-02T13:27:37.158Z,153875.13
2022-11-02T13:30:07.333Z,153867.38
2022-11-02T13:32:43.671Z,153867.38
2022-11-02T13:35:17.645Z,153867.38
2022-11-02T13:37:49.205Z,153882.91
2022-11-02T13:40:22.689Z,153833.72
2022-11-02T13:43:18.802Z,153820.78
2022-11-02T13:45:58.310Z,153776.81
2022-11-02T13:48:44.058Z,153762.66
2022-11-02T13:51:21.153Z,153769.09
2022-11-02T13:53:59.127Z,153732.94
2022-11-02T13:56:29.089Z,153709.63
2022-11-02T13:59:00.685Z,153690.28
2022-11-02T14:01:31.512Z,153668.34
2022-11-02T14:04:06.228Z,153685.09
2022-11-02T14:06:44.430Z,153639.91
2022-11-02T14:09:24.835Z,153639.91
2022-11-02T14:11:52.394Z,153619.22
2022-11-02T14:14:25.279Z,153673.47
2022-11-02T14:17:10.191Z,153673.47
2022-11-02T14:19:53.394Z,153672.19
2022-11-02T14:22:21.889Z,153686.41
2022-11-02T14:25:06.271Z,153683.81
2022-11-02T14:27:33.962Z,153694.19
2022-11-02T14:30:01.458Z,153698.00
2022-11-02T14:32:56.820Z,153667.03
2022-11-02T14:35:41.550Z,153659.25
2022-11-02T14:38:30.806Z,153637.31
2022-11-02T14:41:07.618Z,153620.50
2022-11-02T14:44:04.184Z,153624.41
2022-11-02T14:46:47.699Z,153598.56
2022-11-02T14:49:20.251Z,153590.78
2022-11-02T14:52:03.418Z,153595.97
2022-11-02T14:54:34.358Z,153583.06
2022-11-02T14:57:06.645Z,153545.56
2022-11-02T14:59:38.615Z,153527.47
2022-11-02T15:02:13.326Z,153511.97
2022-11-02T15:04:53.363Z,153487.44
2022-11-02T15:07:42.946Z,153487.44
2022-11-02T15:10:37.881Z,153471.94
2022-11-02T15:13:23.777Z,153453.84
2022-11-02T15:16:23.141Z,153431.94
2022-11-02T15:18:50.828Z,153408.72
2022-11-02T15:21:28.564Z,153371.28
2022-11-02T15:24:17.421Z,153346.72
2022-11-02T15:26:49.958Z,153350.59
2022-11-02T15:29:35.950Z,153319.63
2022-11-02T15:32:05.944Z,153315.78
2022-11-02T15:34:37.899Z,153308.00
2022-11-02T15:37:05.973Z,153243.44
2022-11-02T15:39:35.190Z,153248.63
2022-11-02T15:42:05.179Z,153283.50
2022-11-02T15:45:14.297Z,153217.66
2022-11-02T15:48:00.285Z,153216.34
2022-11-02T15:50:40.639Z,153172.47
2022-11-02T15:53:30.298Z,153169.88
2022-11-02T15:56:14.391Z,153180.25
2022-11-02T15:58:54.230Z,153141.56
2022-11-02T16:01:23.374Z,153159.59
2022-11-02T16:03:58.475Z,153136.38
2022-11-02T16:06:27.587Z,153133.78
2022-11-02T16:08:57.729Z,153122.19
2022-11-02T16:11:26.581Z,153109.28
2022-11-02T16:14:08.656Z,153123.47
2022-11-02T16:16:47.176Z,153119.59
2022-11-02T16:19:19.349Z,153126.06
2022-11-02T16:21:47.394Z,153136.38
2022-11-02T16:24:14.943Z,153128.66
2022-11-02T16:26:45.522Z,153115.72
2022-11-02T16:29:23.135Z,153087.38
2022-11-02T16:31:50.658Z,153035.75
2022-11-02T16:34:21.761Z,152976.50
2022-11-02T16:36:49.650Z,152964.88
2022-11-02T16:39:28.782Z,152935.22
2022-11-02T16:42:00.139Z,152915.88
2022-11-02T16:44:30.256Z,152930.06
2022-11-02T16:47:00.464Z,152917.16
2022-11-02T16:49:28.905Z,152902.97
2022-11-02T16:51:58.589Z,152874.56
2022-11-02T16:54:30.064Z,152855.28
2022-11-02T16:57:07.316Z,152833.31
2022-11-02T16:59:39.365Z,152795.97
2022-11-02T17:02:13.580Z,152710.97
2022-11-02T17:04:42.098Z,152736.75
2022-11-02T17:07:14.174Z,152739.28
2022-11-02T17:09:42.250Z,152725.09
2022-11-02T17:12:17.120Z,152721.28
2022-11-02T17:14:51.162Z,152682.63
2022-11-02T17:17:37.154Z,152644.00
2022-11-02T17:20:20.527Z,152647.81
2022-11-02T17:22:54.219Z,152638.81
2022-11-02T17:25:24.130Z,152559.00
2022-11-02T17:27:54.706Z,152597.63
2022-11-02T17:30:42.305Z,152553.81
2022-11-02T17:33:13.928Z,152736.75
2022-11-02T17:35:46.974Z,152691.63
2022-11-02T17:38:14.678Z,152739.28
2022-11-02T17:40:42.963Z,152664.59
2022-11-02T17:43:10.784Z,152587.31
2022-11-02T17:45:39.168Z,152609.19
2022-11-02T17:48:09.705Z,152659.41
2022-11-02T17:50:39.795Z,152583.44
2022-11-02T17:53:07.506Z,152619.50
2022-11-02T17:55:37.272Z,152582.16
2022-11-02T17:58:07.397Z,152534.53
2022-11-02T18:00:37.865Z,152476.53
2022-11-02T18:03:06.297Z,152425.06
2022-11-02T18:05:37.067Z,152439.22
2022-11-02T18:08:06.554Z,152412.19
2022-11-02T18:10:35.983Z,152464.97
2022-11-02T18:13:03.876Z,152533.25
2022-11-02T18:15:33.670Z,152556.41
2022-11-02T18:18:02.569Z,152419.91
2022-11-02T18:20:31.274Z,152327.25
2022-11-02T18:23:00.621Z,152386.47
2022-11-02T18:25:31.163Z,152371.00
2022-11-02T18:27:59.501Z,152360.72
2022-11-02T18:30:28.299Z,152365.84
2022-11-02T18:32:56.872Z,152453.38
2022-11-02T18:35:26.128Z,152358.16
2022-11-02T18:37:53.760Z,152214.03
2022-11-02T18:40:21.709Z,152199.94
2022-11-02T18:42:49.251Z,152322.09
2022-11-02T18:45:17.229Z,152298.94
2022-11-02T18:47:44.846Z,152329.84
2022-11-02T18:50:14.011Z,152356.84
2022-11-02T18:52:48.740Z,152296.34
2022-11-02T18:55:19.967Z,152269.34
2022-11-02T18:57:50.328Z,152206.34
2022-11-02T19:00:18.146Z,152178.03
2022-11-02T19:02:45.614Z,152226.94
2022-11-02T19:05:27.033Z,152292.53
2022-11-02T19:08:13.432Z,152307.94
2022-11-02T19:10:41.568Z,152257.78
2022-11-02T19:13:09.029Z,152243.63
2022-11-02T19:15:42.211Z,152162.59
2022-11-02T19:18:10.080Z,152194.75
2022-11-02T19:20:37.570Z,152044.31
2022-11-02T19:25:58.140Z,152085.47
2022-11-02T19:28:25.782Z,152135.59
2022-11-02T19:30:53.269Z,152180.63
2022-11-02T19:33:20.709Z,152100.88
2022-11-02T19:35:55.834Z,152018.56
2022-11-02T19:38:24.964Z,152084.16
2022-11-02T19:41:01.412Z,152111.16
2022-11-02T19:43:29.093Z,152080.28
2022-11-02T19:46:00.743Z,152075.19
2022-11-02T19:48:28.220Z,152088.03
2022-11-02T19:50:55.708Z,152118.91
2022-11-02T19:53:24.487Z,152031.47
2022-11-02T19:55:52.890Z,152031.47
2022-11-02T19:58:20.430Z,151988.97
2022-11-02T20:00:48.253Z,151999.25
2022-11-02T20:03:16.696Z,151946.56
2022-11-02T20:05:47.302Z,151992.84
2022-11-02T20:08:14.785Z,152003.13
2022-11-02T20:10:43.673Z,151995.44
2022-11-02T20:13:11.256Z,151964.56
2022-11-02T20:15:40.595Z,151968.44
2022-11-02T20:18:19.068Z,151860.50
2022-11-02T20:20:47.458Z,151962.00
2022-11-02T20:23:14.920Z,151969.75
2022-11-02T20:25:43.697Z,151982.59
2022-11-02T20:28:11.164Z,151973.56
2022-11-02T20:30:41.522Z,151902.91
2022-11-02T20:33:08.990Z,151884.91
2022-11-02T20:35:36.513Z,151902.91
2022-11-02T20:38:04.482Z,151842.50
2022-11-02T20:40:34.540Z,151843.78
2022-11-02T20:43:06.949Z,151904.19
2022-11-02T20:45:34.599Z,151883.63
2022-11-02T20:48:03.027Z,151865.63
2022-11-02T20:50:30.709Z,151823.25
2022-11-02T20:52:58.824Z,151837.41
2022-11-02T20:55:26.374Z,151814.25
2022-11-02T20:57:53.933Z,151856.63
2022-11-02T21:00:22.796Z,151805.25
2022-11-02T21:02:50.234Z,151864.38
2022-11-02T21:05:17.998Z,151803.97
2022-11-02T21:07:45.476Z,151791.13
2022-11-02T21:10:13.090Z,151681.97
2022-11-02T21:12:58.036Z,151669.13
2022-11-02T21:15:26.809Z,151759.00
2022-11-02T21:17:54.380Z,151720.47
2022-11-02T21:20:34.079Z,151696.09
2022-11-02T21:23:02.757Z,151715.38
2022-11-02T21:25:30.608Z,151738.47
2022-11-02T21:27:58.446Z,151679.38
2022-11-02T21:30:27.979Z,151708.94
2022-11-02T21:32:55.456Z,151732.03
2022-11-02T21:35:23.137Z,151761.59
2022-11-02T21:37:50.690Z,151694.81
2022-11-02T21:40:18.512Z,151663.97
2022-11-02T21:42:45.963Z,151638.31
2022-11-02T21:45:17.780Z,151655.00
2022-11-02T21:47:50.427Z,151710.22
2022-11-02T21:50:17.944Z,151684.53
2022-11-02T21:52:45.451Z,151616.50
2022-11-02T21:55:12.897Z,151667.84
2022-11-02T21:57:40.401Z,151687.13
2022-11-02T22:00:09.708Z,151658.88
2022-11-02T22:02:36.306Z,151671.72
2022-11-02T22:05:05.630Z,151683.25
2022-11-02T22:07:53.284Z,151694.81
2022-11-02T22:10:20.728Z,151651.13
2022-11-02T22:13:06.437Z,151673.00
2022-11-02T22:15:37.422Z,151678.09
2022-11-02T22:18:06.062Z,151663.97
2022-11-02T22:20:34.849Z,151643.44
2022-11-02T22:23:02.437Z,151592.13
2022-11-02T22:25:29.968Z,151616.50
2022-11-02T22:27:57.442Z,151610.06
2022-11-02T22:30:25.227Z,151569.03
2022-11-02T22:32:52.716Z,151540.78
2022-11-02T22:35:20.149Z,151522.81
2022-11-02T22:38:06.832Z,151547.19
2022-11-02T22:40:34.280Z,151499.72
2022-11-02T22:43:01.855Z,151531.75
2022-11-02T22:45:29.317Z,151551.03
2022-11-02T22:47:56.911Z,151566.44
2022-11-02T22:50:26.830Z,151525.38
2022-11-02T22:52:57.018Z,151474.06
2022-11-02T22:55:24.458Z,151476.59
2022-11-02T22:57:58.798Z,151457.34
2022-11-02T23:00:27.480Z,151468.91
2022-11-02T23:02:55.114Z,151450.94
2022-11-02T23:05:22.570Z,151468.91
2022-11-02T23:07:50.084Z,151459.94
2022-11-02T23:10:32.886Z,151495.84
2022-11-02T23:13:00.381Z,151421.47
2022-11-02T23:15:27.862Z,151402.13
2022-11-02T23:17:55.339Z,151438.09
2022-11-02T23:20:21.851Z,151448.41
2022-11-02T23:23:06.935Z,151404.72
2022-11-02T23:25:36.079Z,151449.63
2022-11-02T23:28:21.316Z,151440.66
2022-11-02T23:31:06.297Z,151391.88
2022-11-02T23:33:36.091Z,151343.13
2022-11-02T23:36:13.158Z,151408.56
2022-11-02T23:38:58.870Z,151400.84
2022-11-02T23:41:28.946Z,151371.34
2022-11-02T23:44:11.572Z,151375.19
2022-11-02T23:46:39.976Z,151407.28
2022-11-02T23:49:07.470Z,151372.63
2022-11-02T23:51:52.969Z,151320.03
2022-11-02T23:54:38.324Z,151353.41
2022-11-02T23:57:07.612Z,151340.59
2022-11-02T23:59:35.061Z,151345.69
